Terminal Aerodrome Forecast
Issued by NWS Boston, MA

Home | Current Version | Previous Version | Text Only | Print | Product List | Glossary On
Versions: 1 2 3 4 5 6 7 8 9 10 11 12 13 14 15 16 17 18 19 20 21 22 23 24 25 26
000
FTUS41 KBOX 252012 AAA
TAFBOS
TAF AMD
KBOS 252012Z 2520/2624 08008KT P6SM FEW200
     FM252030 23007KT P6SM SCT150
     FM260000 27007KT P6SM BKN120
     FM260900 31007KT P6SM SKC
     FM261400 02006KT P6SM FEW250
     FM261600 06007KT P6SM SCT250=

USA.gov is the U.S. government's official web portal to all federal, state and local government web resources and services.